Salado, Arizona
Current Conditions -  °F | °C
As of 1:54 AM on Friday 28 Nov 2014 (Local Time) from KSJN Reporting Station
Clear Clear  
Wind Chill: 31°   Ceiling: Unl
Heat Index: 31°   Visibility: 10mi
Dew Point: 16°   Wind: 0mph
Humidity: 54%   Direction: NA
Pressure: 30.29"   Gusts: NA
Location:  34.4981°N, 109.241°W
Report Text: KSJN 280854Z AUTO 00000KT 10SM CLR M01/M09 A3029 RMK AO2 SLP221 T10061089 55006
Loading
Personal Weather Stations






























Interactive Weather Map New forecast layout! Learn more

10-Day Weather Forecast

Advertisements
Track Severe Weather on mobile